sensor_id;sensor_type;location;lat;lon;timestamp;temperature;humidity
23579;DHT22;11967;50.852;4.400;2023-02-28T00:01:20;8.50;96.10
23579;DHT22;11967;50.852;4.400;2023-02-28T00:03:46;8.50;96.80
23579;DHT22;11967;50.852;4.400;2023-02-28T00:06:12;8.40;96.70
23579;DHT22;11967;50.852;4.400;2023-02-28T00:08:38;8.40;97.10
23579;DHT22;11967;50.852;4.400;2023-02-28T00:11:06;8.40;97.10
23579;DHT22;11967;50.852;4.400;2023-02-28T00:13:34;8.50;97.10
23579;DHT22;11967;50.852;4.400;2023-02-28T00:16:02;8.30;97.00
23579;DHT22;11967;50.852;4.400;2023-02-28T00:18:28;8.40;97.40
23579;DHT22;11967;50.852;4.400;2023-02-28T00:20:54;8.50;97.70
23579;DHT22;11967;50.852;4.400;2023-02-28T00:23:20;8.30;97.10
23579;DHT22;11967;50.852;4.400;2023-02-28T00:25:45;8.30;97.50
23579;DHT22;11967;50.852;4.400;2023-02-28T00:28:11;8.30;97.70
23579;DHT22;11967;50.852;4.400;2023-02-28T00:30:36;8.20;98.00
23579;DHT22;11967;50.852;4.400;2023-02-28T00:33:02;8.30;98.30
23579;DHT22;11967;50.852;4.400;2023-02-28T00:35:28;8.30;98.10
23579;DHT22;11967;50.852;4.400;2023-02-28T00:37:54;8.40;98.00
23579;DHT22;11967;50.852;4.400;2023-02-28T00:40:20;8.30;98.00
23579;DHT22;11967;50.852;4.400;2023-02-28T00:42:45;8.30;97.80
23579;DHT22;11967;50.852;4.400;2023-02-28T00:45:11;8.30;97.80
23579;DHT22;11967;50.852;4.400;2023-02-28T00:47:36;8.20;98.10
23579;DHT22;11967;50.852;4.400;2023-02-28T00:50:03;8.10;98.20
23579;DHT22;11967;50.852;4.400;2023-02-28T00:52:29;8.20;98.30
23579;DHT22;11967;50.852;4.400;2023-02-28T00:54:55;8.10;98.40
23579;DHT22;11967;50.852;4.400;2023-02-28T00:57:21;8.10;99.00
23579;DHT22;11967;50.852;4.400;2023-02-28T00:59:46;8.20;98.70
23579;DHT22;11967;50.852;4.400;2023-02-28T01:02:12;8.00;99.10
23579;DHT22;11967;50.852;4.400;2023-02-28T01:04:37;8.00;98.90
23579;DHT22;11967;50.852;4.400;2023-02-28T01:07:03;8.00;99.30
23579;DHT22;11967;50.852;4.400;2023-02-28T01:09:29;7.90;99.00
23579;DHT22;11967;50.852;4.400;2023-02-28T01:11:54;7.90;99.80
23579;DHT22;11967;50.852;4.400;2023-02-28T01:14:20;8.00;99.90
23579;DHT22;11967;50.852;4.400;2023-02-28T01:16:46;8.00;99.90
23579;DHT22;11967;50.852;4.400;2023-02-28T01:19:11;7.90;99.90
23579;DHT22;11967;50.852;4.400;2023-02-28T01:21:37;8.00;99.90
23579;DHT22;11967;50.852;4.400;2023-02-28T01:24:04;8.00;99.90
23579;DHT22;11967;50.852;4.400;2023-02-28T01:30:11;8.00;99.50
23579;DHT22;11967;50.852;4.400;2023-02-28T01:32:37;7.90;99.90
23579;DHT22;11967;50.852;4.400;2023-02-28T01:35:03;8.20;99.90
23579;DHT22;11967;50.852;4.400;2023-02-28T01:37:28;8.10;99.90
23579;DHT22;11967;50.852;4.400;2023-02-28T01:39:54;7.90;99.80
23579;DHT22;11967;50.852;4.400;2023-02-28T01:42:20;8.10;99.90
23579;DHT22;11967;50.852;4.400;2023-02-28T01:45:03;8.10;99.90
23579;DHT22;11967;50.852;4.400;2023-02-28T01:47:38;8.00;99.90
23579;DHT22;11967;50.852;4.400;2023-02-28T01:50:11;8.00;99.90
23579;DHT22;11967;50.852;4.400;2023-02-28T01:52:38;7.80;99.90
23579;DHT22;11967;50.852;4.400;2023-02-28T01:55:05;7.80;99.90
23579;DHT22;11967;50.852;4.400;2023-02-28T01:57:38;7.80;99.90
23579;DHT22;11967;50.852;4.400;2023-02-28T02:00:11;7.80;99.90
23579;DHT22;11967;50.852;4.400;2023-02-28T02:02:44;7.60;99.90
23579;DHT22;11967;50.852;4.400;2023-02-28T02:05:32;7.60;99.90
23579;DHT22;11967;50.852;4.400;2023-02-28T02:08:10;7.60;99.90
23579;DHT22;11967;50.852;4.400;2023-02-28T02:10:43;7.60;99.90
23579;DHT22;11967;50.852;4.400;2023-02-28T02:16:04;7.70;99.90
23579;DHT22;11967;50.852;4.400;2023-02-28T02:18:54;7.70;99.90
23579;DHT22;11967;50.852;4.400;2023-02-28T02:24:11;7.60;99.90
23579;DHT22;11967;50.852;4.400;2023-02-28T02:26:55;7.60;99.90
23579;DHT22;11967;50.852;4.400;2023-02-28T02:34:43;7.60;99.90
23579;DHT22;11967;50.852;4.400;2023-02-28T02:37:40;7.60;99.90
23579;DHT22;11967;50.852;4.400;2023-02-28T02:40:32;7.50;99.90
23579;DHT22;11967;50.852;4.400;2023-02-28T02:46:29;7.50;99.90
23579;DHT22;11967;50.852;4.400;2023-02-28T02:48:57;7.30;99.90
23579;DHT22;11967;50.852;4.400;2023-02-28T02:51:26;7.40;99.90
23579;DHT22;11967;50.852;4.400;2023-02-28T02:54:00;7.40;99.90
23579;DHT22;11967;50.852;4.400;2023-02-28T02:59:30;7.30;99.90
23579;DHT22;11967;50.852;4.400;2023-02-28T03:01:59;7.30;99.90
23579;DHT22;11967;50.852;4.400;2023-02-28T03:04:27;7.30;99.90
23579;DHT22;11967;50.852;4.400;2023-02-28T03:06:54;7.30;99.90
23579;DHT22;11967;50.852;4.400;2023-02-28T03:09:23;7.20;99.90
23579;DHT22;11967;50.852;4.400;2023-02-28T03:11:51;7.30;99.90
23579;DHT22;11967;50.852;4.400;2023-02-28T03:14:28;7.40;99.90
23579;DHT22;11967;50.852;4.400;2023-02-28T03:31:29;7.20;99.90
23579;DHT22;11967;50.852;4.400;2023-02-28T03:34:14;7.20;99.90
23579;DHT22;11967;50.852;4.400;2023-02-28T03:36:46;7.20;99.90
23579;DHT22;11967;50.852;4.400;2023-02-28T03:42:09;7.40;99.90
23579;DHT22;11967;50.852;4.400;2023-02-28T03:45:04;7.40;99.90
23579;DHT22;11967;50.852;4.400;2023-02-28T03:47:45;7.40;99.90
23579;DHT22;11967;50.852;4.400;2023-02-28T03:53:25;7.20;99.90
23579;DHT22;11967;50.852;4.400;2023-02-28T03:56:59;7.00;99.90
23579;DHT22;11967;50.852;4.400;2023-02-28T03:59:05;7.00;99.90
23579;DHT22;11967;50.852;4.400;2023-02-28T04:01:39;7.00;99.90
23579;DHT22;11967;50.852;4.400;2023-02-28T04:04:07;7.10;99.90
23579;DHT22;11967;50.852;4.400;2023-02-28T04:06:34;7.10;99.90
23579;DHT22;11967;50.852;4.400;2023-02-28T04:08:59;7.10;99.90
23579;DHT22;11967;50.852;4.400;2023-02-28T04:11:52;7.00;99.90
23579;DHT22;11967;50.852;4.400;2023-02-28T04:14:18;7.00;99.90
23579;DHT22;11967;50.852;4.400;2023-02-28T04:16:44;7.10;99.90
23579;DHT22;11967;50.852;4.400;2023-02-28T04:19:11;7.10;99.90
23579;DHT22;11967;50.852;4.400;2023-02-28T04:21:39;7.10;99.90
23579;DHT22;11967;50.852;4.400;2023-02-28T04:24:06;7.10;99.90
23579;DHT22;11967;50.852;4.400;2023-02-28T04:26:33;7.10;99.90
23579;DHT22;11967;50.852;4.400;2023-02-28T04:29:00;7.10;99.90
23579;DHT22;11967;50.852;4.400;2023-02-28T04:31:26;7.00;99.90
23579;DHT22;11967;50.852;4.400;2023-02-28T04:33:51;7.10;99.90
23579;DHT22;11967;50.852;4.400;2023-02-28T04:36:18;7.00;99.90
23579;DHT22;11967;50.852;4.400;2023-02-28T04:38:44;7.10;99.90
23579;DHT22;11967;50.852;4.400;2023-02-28T04:41:10;7.10;99.90
23579;DHT22;11967;50.852;4.400;2023-02-28T04:43:36;7.20;99.90
23579;DHT22;11967;50.852;4.400;2023-02-28T04:46:04;7.10;99.90
23579;DHT22;11967;50.852;4.400;2023-02-28T04:48:32;7.00;99.90
23579;DHT22;11967;50.852;4.400;2023-02-28T04:51:08;6.90;99.90
23579;DHT22;11967;50.852;4.400;2023-02-28T04:53:36;6.90;99.90
23579;DHT22;11967;50.852;4.400;2023-02-28T04:56:02;6.80;99.90
23579;DHT22;11967;50.852;4.400;2023-02-28T04:58:28;6.80;99.90
23579;DHT22;11967;50.852;4.400;2023-02-28T05:01:14;6.90;99.90
23579;DHT22;11967;50.852;4.400;2023-02-28T05:03:41;6.90;99.90
23579;DHT22;11967;50.852;4.400;2023-02-28T05:06:07;7.00;99.90
23579;DHT22;11967;50.852;4.400;2023-02-28T05:08:33;7.00;99.90
23579;DHT22;11967;50.852;4.400;2023-02-28T05:10:59;7.10;99.90
23579;DHT22;11967;50.852;4.400;2023-02-28T05:13:28;7.00;99.90
23579;DHT22;11967;50.852;4.400;2023-02-28T05:15:54;7.00;99.90
23579;DHT22;11967;50.852;4.400;2023-02-28T05:18:20;7.00;99.90
23579;DHT22;11967;50.852;4.400;2023-02-28T05:20:47;6.90;99.90
23579;DHT22;11967;50.852;4.400;2023-02-28T05:23:19;6.90;99.90
23579;DHT22;11967;50.852;4.400;2023-02-28T05:25:50;6.90;99.90
23579;DHT22;11967;50.852;4.400;2023-02-28T05:28:17;7.00;99.90
23579;DHT22;11967;50.852;4.400;2023-02-28T05:30:43;7.00;99.90
23579;DHT22;11967;50.852;4.400;2023-02-28T05:33:11;6.90;99.90
23579;DHT22;11967;50.852;4.400;2023-02-28T05:35:41;7.00;99.90
23579;DHT22;11967;50.852;4.400;2023-02-28T05:38:08;7.10;99.90
23579;DHT22;11967;50.852;4.400;2023-02-28T05:40:33;7.10;99.90
23579;DHT22;11967;50.852;4.400;2023-02-28T05:42:59;7.00;99.90
23579;DHT22;11967;50.852;4.400;2023-02-28T05:45:25;7.00;99.90
23579;DHT22;11967;50.852;4.400;2023-02-28T05:47:53;7.00;99.90
23579;DHT22;11967;50.852;4.400;2023-02-28T05:50:19;6.80;99.90
23579;DHT22;11967;50.852;4.400;2023-02-28T05:52:52;6.90;99.90
23579;DHT22;11967;50.852;4.400;2023-02-28T05:55:18;7.00;99.90
23579;DHT22;11967;50.852;4.400;2023-02-28T05:57:43;7.10;99.90
23579;DHT22;11967;50.852;4.400;2023-02-28T06:00:10;7.10;99.90
23579;DHT22;11967;50.852;4.400;2023-02-28T06:02:35;7.00;99.90
23579;DHT22;11967;50.852;4.400;2023-02-28T06:05:01;6.90;99.90
23579;DHT22;11967;50.852;4.400;2023-02-28T06:07:27;6.80;99.90
23579;DHT22;11967;50.852;4.400;2023-02-28T06:09:52;6.90;99.90
23579;DHT22;11967;50.852;4.400;2023-02-28T06:12:18;7.00;99.90
23579;DHT22;11967;50.852;4.400;2023-02-28T06:14:44;7.00;99.90
23579;DHT22;11967;50.852;4.400;2023-02-28T06:17:10;6.90;99.90
23579;DHT22;11967;50.852;4.400;2023-02-28T06:19:39;6.90;99.90
23579;DHT22;11967;50.852;4.400;2023-02-28T06:22:06;7.00;99.90
23579;DHT22;11967;50.852;4.400;2023-02-28T06:24:32;7.10;99.90
23579;DHT22;11967;50.852;4.400;2023-02-28T06:26:58;7.00;99.90
23579;DHT22;11967;50.852;4.400;2023-02-28T06:29:31;7.10;99.90
23579;DHT22;11967;50.852;4.400;2023-02-28T06:31:56;7.20;99.90
23579;DHT22;11967;50.852;4.400;2023-02-28T06:34:22;7.20;99.90
23579;DHT22;11967;50.852;4.400;2023-02-28T06:36:50;7.10;99.90
23579;DHT22;11967;50.852;4.400;2023-02-28T06:39:16;7.10;99.90
23579;DHT22;11967;50.852;4.400;2023-02-28T06:41:42;7.00;99.90
23579;DHT22;11967;50.852;4.400;2023-02-28T06:44:17;6.90;99.90
23579;DHT22;11967;50.852;4.400;2023-02-28T06:46:44;6.90;99.90
23579;DHT22;11967;50.852;4.400;2023-02-28T06:49:10;7.00;99.90
23579;DHT22;11967;50.852;4.400;2023-02-28T06:51:40;7.10;99.90
23579;DHT22;11967;50.852;4.400;2023-02-28T06:54:08;7.10;99.90
23579;DHT22;11967;50.852;4.400;2023-02-28T06:56:35;6.90;99.90
23579;DHT22;11967;50.852;4.400;2023-02-28T06:59:00;6.90;99.90
23579;DHT22;11967;50.852;4.400;2023-02-28T07:01:26;7.00;99.90
23579;DHT22;11967;50.852;4.400;2023-02-28T07:03:54;7.00;99.90
23579;DHT22;11967;50.852;4.400;2023-02-28T07:06:21;7.00;99.90
23579;DHT22;11967;50.852;4.400;2023-02-28T07:08:51;7.10;99.90
23579;DHT22;11967;50.852;4.400;2023-02-28T07:11:19;7.00;99.90
23579;DHT22;11967;50.852;4.400;2023-02-28T07:13:45;7.00;99.90
23579;DHT22;11967;50.852;4.400;2023-02-28T07:16:12;7.10;99.90
23579;DHT22;11967;50.852;4.400;2023-02-28T07:18:39;7.10;99.90
23579;DHT22;11967;50.852;4.400;2023-02-28T07:21:06;7.30;99.90
23579;DHT22;11967;50.852;4.400;2023-02-28T07:23:32;7.30;99.90
23579;DHT22;11967;50.852;4.400;2023-02-28T07:25:58;7.30;99.90
23579;DHT22;11967;50.852;4.400;2023-02-28T07:28:24;7.20;99.90
23579;DHT22;11967;50.852;4.400;2023-02-28T07:30:50;7.20;99.90
23579;DHT22;11967;50.852;4.400;2023-02-28T07:33:16;7.20;99.90
23579;DHT22;11967;50.852;4.400;2023-02-28T07:35:43;7.30;99.90
23579;DHT22;11967;50.852;4.400;2023-02-28T07:38:09;7.40;99.90
23579;DHT22;11967;50.852;4.400;2023-02-28T07:40:36;7.30;99.90
23579;DHT22;11967;50.852;4.400;2023-02-28T07:43:03;7.30;99.90
23579;DHT22;11967;50.852;4.400;2023-02-28T07:45:29;7.40;99.90
23579;DHT22;11967;50.852;4.400;2023-02-28T07:47:57;7.40;99.90
23579;DHT22;11967;50.852;4.400;2023-02-28T07:50:26;7.50;99.90
23579;DHT22;11967;50.852;4.400;2023-02-28T07:53:00;7.40;99.90
23579;DHT22;11967;50.852;4.400;2023-02-28T07:55:27;7.40;99.90
23579;DHT22;11967;50.852;4.400;2023-02-28T07:57:53;7.40;99.90
23579;DHT22;11967;50.852;4.400;2023-02-28T08:00:19;7.30;99.90
23579;DHT22;11967;50.852;4.400;2023-02-28T08:02:44;7.40;99.90
23579;DHT22;11967;50.852;4.400;2023-02-28T08:05:12;7.50;99.90
23579;DHT22;11967;50.852;4.400;2023-02-28T08:07:38;7.60;99.90
23579;DHT22;11967;50.852;4.400;2023-02-28T08:10:05;7.50;99.90
23579;DHT22;11967;50.852;4.400;2023-02-28T08:12:33;7.70;99.90
23579;DHT22;11967;50.852;4.400;2023-02-28T08:14:58;7.60;99.90
23579;DHT22;11967;50.852;4.400;2023-02-28T08:17:24;7.70;99.90
23579;DHT22;11967;50.852;4.400;2023-02-28T08:19:50;7.70;99.90
23579;DHT22;11967;50.852;4.400;2023-02-28T08:22:15;7.70;99.90
23579;DHT22;11967;50.852;4.400;2023-02-28T08:24:42;7.80;99.90
23579;DHT22;11967;50.852;4.400;2023-02-28T08:27:10;7.90;99.90
23579;DHT22;11967;50.852;4.400;2023-02-28T08:29:37;8.60;99.90
23579;DHT22;11967;50.852;4.400;2023-02-28T08:32:04;8.60;99.90
23579;DHT22;11967;50.852;4.400;2023-02-28T08:34:30;8.50;99.90
23579;DHT22;11967;50.852;4.400;2023-02-28T08:36:55;8.40;99.90
23579;DHT22;11967;50.852;4.400;2023-02-28T08:39:24;8.30;99.90
23579;DHT22;11967;50.852;4.400;2023-02-28T08:41:50;8.20;99.90
23579;DHT22;11967;50.852;4.400;2023-02-28T08:44:16;8.10;99.90
23579;DHT22;11967;50.852;4.400;2023-02-28T08:46:42;8.10;99.90
23579;DHT22;11967;50.852;4.400;2023-02-28T08:49:10;8.20;99.90
23579;DHT22;11967;50.852;4.400;2023-02-28T08:51:36;8.10;99.90
23579;DHT22;11967;50.852;4.400;2023-02-28T08:54:01;8.20;99.90
23579;DHT22;11967;50.852;4.400;2023-02-28T08:56:28;8.10;99.90
23579;DHT22;11967;50.852;4.400;2023-02-28T08:58:55;8.20;99.90
23579;DHT22;11967;50.852;4.400;2023-02-28T09:01:24;8.40;99.90
23579;DHT22;11967;50.852;4.400;2023-02-28T09:03:50;8.40;99.90
23579;DHT22;11967;50.852;4.400;2023-02-28T09:06:17;8.50;99.90
23579;DHT22;11967;50.852;4.400;2023-02-28T09:08:44;8.50;99.90
23579;DHT22;11967;50.852;4.400;2023-02-28T09:11:10;8.40;99.40
23579;DHT22;11967;50.852;4.400;2023-02-28T09:13:36;8.50;99.60
23579;DHT22;11967;50.852;4.400;2023-02-28T09:16:05;8.50;98.90
23579;DHT22;11967;50.852;4.400;2023-02-28T09:18:31;8.40;98.30
23579;DHT22;11967;50.852;4.400;2023-02-28T09:20:56;8.50;97.80
23579;DHT22;11967;50.852;4.400;2023-02-28T09:23:24;8.50;98.10
23579;DHT22;11967;50.852;4.400;2023-02-28T09:25:51;8.60;97.50
23579;DHT22;11967;50.852;4.400;2023-02-28T09:28:18;8.80;97.30
23579;DHT22;11967;50.852;4.400;2023-02-28T09:30:46;8.80;97.00
23579;DHT22;11967;50.852;4.400;2023-02-28T09:33:13;9.00;96.30
23579;DHT22;11967;50.852;4.400;2023-02-28T09:35:41;9.20;98.20
23579;DHT22;11967;50.852;4.400;2023-02-28T09:38:08;9.30;95.60
23579;DHT22;11967;50.852;4.400;2023-02-28T09:40:50;9.40;94.60
23579;DHT22;11967;50.852;4.400;2023-02-28T09:43:17;9.60;95.20
23579;DHT22;11967;50.852;4.400;2023-02-28T09:45:52;9.70;94.00
23579;DHT22;11967;50.852;4.400;2023-02-28T09:48:33;9.90;93.70
23579;DHT22;11967;50.852;4.400;2023-02-28T09:51:13;10.00;93.60
23579;DHT22;11967;50.852;4.400;2023-02-28T09:53:41;10.00;92.10
23579;DHT22;11967;50.852;4.400;2023-02-28T09:56:09;10.20;91.70
23579;DHT22;11967;50.852;4.400;2023-02-28T09:58:47;10.40;90.70
23579;DHT22;11967;50.852;4.400;2023-02-28T10:01:47;10.40;89.40
23579;DHT22;11967;50.852;4.400;2023-02-28T10:04:42;10.40;87.00
23579;DHT22;11967;50.852;4.400;2023-02-28T10:10:02;10.70;86.70
23579;DHT22;11967;50.852;4.400;2023-02-28T10:12:32;10.90;86.50
23579;DHT22;11967;50.852;4.400;2023-02-28T10:14:59;11.00;84.30
23579;DHT22;11967;50.852;4.400;2023-02-28T10:17:38;11.10;83.50
23579;DHT22;11967;50.852;4.400;2023-02-28T10:20:10;11.20;81.30
23579;DHT22;11967;50.852;4.400;2023-02-28T10:25:22;11.40;80.90
23579;DHT22;11967;50.852;4.400;2023-02-28T10:27:49;11.60;81.00
23579;DHT22;11967;50.852;4.400;2023-02-28T10:30:18;11.60;78.10
23579;DHT22;11967;50.852;4.400;2023-02-28T10:32:50;11.60;77.20
23579;DHT22;11967;50.852;4.400;2023-02-28T10:35:24;11.70;76.80
23579;DHT22;11967;50.852;4.400;2023-02-28T10:37:56;11.80;74.30
23579;DHT22;11967;50.852;4.400;2023-02-28T10:43:05;11.90;72.50
23579;DHT22;11967;50.852;4.400;2023-02-28T10:45:33;12.10;71.30
23579;DHT22;11967;50.852;4.400;2023-02-28T10:48:26;12.20;78.60
23579;DHT22;11967;50.852;4.400;2023-02-28T10:50:50;12.40;88.80
23579;DHT22;11967;50.852;4.400;2023-02-28T10:56:06;12.60;71.70
23579;DHT22;11967;50.852;4.400;2023-02-28T10:58:53;12.60;68.90
23579;DHT22;11967;50.852;4.400;2023-02-28T11:01:24;12.60;66.80
23579;DHT22;11967;50.852;4.400;2023-02-28T11:03:51;12.60;65.00
23579;DHT22;11967;50.852;4.400;2023-02-28T11:06:23;12.40;64.60
23579;DHT22;11967;50.852;4.400;2023-02-28T11:08:55;12.30;64.90
23579;DHT22;11967;50.852;4.400;2023-02-28T11:11:25;12.40;66.40
23579;DHT22;11967;50.852;4.400;2023-02-28T11:14:04;12.50;66.20
23579;DHT22;11967;50.852;4.400;2023-02-28T11:16:37;12.60;79.50
23579;DHT22;11967;50.852;4.400;2023-02-28T11:19:04;12.60;67.30
23579;DHT22;11967;50.852;4.400;2023-02-28T11:21:36;12.80;79.00
23579;DHT22;11967;50.852;4.400;2023-02-28T11:26:49;13.10;67.60
23579;DHT22;11967;50.852;4.400;2023-02-28T11:29:23;13.10;67.40
23579;DHT22;11967;50.852;4.400;2023-02-28T11:34:35;13.10;66.80
23579;DHT22;11967;50.852;4.400;2023-02-28T11:37:02;13.20;68.30
23579;DHT22;11967;50.852;4.400;2023-02-28T11:39:31;13.20;68.00
23579;DHT22;11967;50.852;4.400;2023-02-28T11:47:33;13.20;62.10
23579;DHT22;11967;50.852;4.400;2023-02-28T11:53:19;13.40;64.00
23579;DHT22;11967;50.852;4.400;2023-02-28T11:55:42;13.40;63.30
23579;DHT22;11967;50.852;4.400;2023-02-28T12:09:11;13.90;62.50
23579;DHT22;11967;50.852;4.400;2023-02-28T12:11:56;13.90;61.70
23579;DHT22;11967;50.852;4.400;2023-02-28T12:23:21;13.70;59.30
23579;DHT22;11967;50.852;4.400;2023-02-28T12:28:04;13.80;62.40
23579;DHT22;11967;50.852;4.400;2023-02-28T12:30:34;13.80;62.80
23579;DHT22;11967;50.852;4.400;2023-02-28T12:33:13;13.90;59.60
23579;DHT22;11967;50.852;4.400;2023-02-28T12:36:10;13.80;58.10
23579;DHT22;11967;50.852;4.400;2023-02-28T12:38:47;14.00;58.40
23579;DHT22;11967;50.852;4.400;2023-02-28T12:41:22;14.00;58.40
23579;DHT22;11967;50.852;4.400;2023-02-28T12:44:26;13.80;58.50
23579;DHT22;11967;50.852;4.400;2023-02-28T12:46:59;13.80;58.40
23579;DHT22;11967;50.852;4.400;2023-02-28T12:49:39;13.90;60.30
23579;DHT22;11967;50.852;4.400;2023-02-28T12:52:06;13.90;57.40
23579;DHT22;11967;50.852;4.400;2023-02-28T12:54:53;13.80;56.80
23579;DHT22;11967;50.852;4.400;2023-02-28T13:00:13;14.00;57.10
23579;DHT22;11967;50.852;4.400;2023-02-28T13:08:34;13.90;57.20
23579;DHT22;11967;50.852;4.400;2023-02-28T13:11:06;14.50;91.70
23579;DHT22;11967;50.852;4.400;2023-02-28T13:13:32;14.90;74.80
23579;DHT22;11967;50.852;4.400;2023-02-28T13:16:10;15.10;73.70
23579;DHT22;11967;50.852;4.400;2023-02-28T13:18:40;15.10;68.30
23579;DHT22;11967;50.852;4.400;2023-02-28T13:21:23;15.30;81.30
23579;DHT22;11967;50.852;4.400;2023-02-28T13:26:23;15.50;64.80
23579;DHT22;11967;50.852;4.400;2023-02-28T13:42:23;14.40;57.40
23579;DHT22;11967;50.852;4.400;2023-02-28T13:47:30;14.20;57.10
23579;DHT22;11967;50.852;4.400;2023-02-28T13:50:31;14.30;57.20
23579;DHT22;11967;50.852;4.400;2023-02-28T14:06:59;13.40;55.40
23579;DHT22;11967;50.852;4.400;2023-02-28T14:11:53;13.20;55.10
23579;DHT22;11967;50.852;4.400;2023-02-28T14:17:01;13.10;55.00
23579;DHT22;11967;50.852;4.400;2023-02-28T14:19:30;13.00;55.50
23579;DHT22;11967;50.852;4.400;2023-02-28T14:22:38;13.10;56.90
23579;DHT22;11967;50.852;4.400;2023-02-28T14:28:10;13.00;56.70
23579;DHT22;11967;50.852;4.400;2023-02-28T14:39:10;13.40;56.90
23579;DHT22;11967;50.852;4.400;2023-02-28T14:41:39;13.40;55.50
23579;DHT22;11967;50.852;4.400;2023-02-28T14:44:23;13.40;55.80
23579;DHT22;11967;50.852;4.400;2023-02-28T14:46:54;13.30;55.50
23579;DHT22;11967;50.852;4.400;2023-02-28T14:49:41;13.20;55.80
23579;DHT22;11967;50.852;4.400;2023-02-28T14:52:26;13.20;56.10
23579;DHT22;11967;50.852;4.400;2023-02-28T14:54:55;13.30;57.00
23579;DHT22;11967;50.852;4.400;2023-02-28T14:57:33;13.30;56.70
23579;DHT22;11967;50.852;4.400;2023-02-28T15:00:11;13.30;56.10
23579;DHT22;11967;50.852;4.400;2023-02-28T15:02:41;13.30;56.00
23579;DHT22;11967;50.852;4.400;2023-02-28T15:07:36;13.40;57.10
23579;DHT22;11967;50.852;4.400;2023-02-28T15:10:24;13.30;56.70
23579;DHT22;11967;50.852;4.400;2023-02-28T15:15:18;13.20;57.70
23579;DHT22;11967;50.852;4.400;2023-02-28T15:17:52;13.30;56.80
23579;DHT22;11967;50.852;4.400;2023-02-28T15:20:20;13.40;56.70
23579;DHT22;11967;50.852;4.400;2023-02-28T15:22:48;13.40;56.60
23579;DHT22;11967;50.852;4.400;2023-02-28T15:25:18;13.40;57.50
23579;DHT22;11967;50.852;4.400;2023-02-28T15:27:49;13.40;56.90
23579;DHT22;11967;50.852;4.400;2023-02-28T15:30:24;13.50;57.10
23579;DHT22;11967;50.852;4.400;2023-02-28T15:35:38;13.30;57.90
23579;DHT22;11967;50.852;4.400;2023-02-28T15:38:25;13.30;57.80
23579;DHT22;11967;50.852;4.400;2023-02-28T15:40:52;13.30;59.30
23579;DHT22;11967;50.852;4.400;2023-02-28T15:43:32;13.20;58.30
23579;DHT22;11967;50.852;4.400;2023-02-28T15:48:47;13.20;59.00
23579;DHT22;11967;50.852;4.400;2023-02-28T15:51:55;13.20;58.80
23579;DHT22;11967;50.852;4.400;2023-02-28T15:54:18;13.30;58.30
23579;DHT22;11967;50.852;4.400;2023-02-28T15:56:46;13.30;57.50
23579;DHT22;11967;50.852;4.400;2023-02-28T15:59:29;13.20;57.90
23579;DHT22;11967;50.852;4.400;2023-02-28T16:02:29;13.20;57.40
23579;DHT22;11967;50.852;4.400;2023-02-28T16:07:32;13.00;58.70
23579;DHT22;11967;50.852;4.400;2023-02-28T16:09:58;12.90;60.10
23579;DHT22;11967;50.852;4.400;2023-02-28T16:12:30;13.00;60.30
23579;DHT22;11967;50.852;4.400;2023-02-28T16:14:58;13.00;58.60
23579;DHT22;11967;50.852;4.400;2023-02-28T16:17:31;12.90;58.60
23579;DHT22;11967;50.852;4.400;2023-02-28T16:19:58;12.90;58.50
23579;DHT22;11967;50.852;4.400;2023-02-28T16:22:24;13.00;58.70
23579;DHT22;11967;50.852;4.400;2023-02-28T16:24:49;13.00;59.10
23579;DHT22;11967;50.852;4.400;2023-02-28T16:27:36;12.90;59.30
23579;DHT22;11967;50.852;4.400;2023-02-28T16:30:04;13.00;59.00
23579;DHT22;11967;50.852;4.400;2023-02-28T16:32:31;12.80;59.70
23579;DHT22;11967;50.852;4.400;2023-02-28T16:34:57;12.80;59.90
23579;DHT22;11967;50.852;4.400;2023-02-28T16:37:23;12.70;59.80
23579;DHT22;11967;50.852;4.400;2023-02-28T16:39:48;12.70;59.50
23579;DHT22;11967;50.852;4.400;2023-02-28T16:42:25;12.70;59.70
23579;DHT22;11967;50.852;4.400;2023-02-28T16:44:52;12.60;59.90
23579;DHT22;11967;50.852;4.400;2023-02-28T16:47:18;12.60;59.40
23579;DHT22;11967;50.852;4.400;2023-02-28T16:49:44;12.40;59.40
23579;DHT22;11967;50.852;4.400;2023-02-28T16:52:10;12.40;60.60
23579;DHT22;11967;50.852;4.400;2023-02-28T16:54:37;12.40;60.10
23579;DHT22;11967;50.852;4.400;2023-02-28T16:57:04;12.30;60.60
23579;DHT22;11967;50.852;4.400;2023-02-28T16:59:31;12.40;60.20
23579;DHT22;11967;50.852;4.400;2023-02-28T17:01:57;12.30;60.80
23579;DHT22;11967;50.852;4.400;2023-02-28T17:04:25;12.30;61.20
23579;DHT22;11967;50.852;4.400;2023-02-28T17:06:50;12.20;61.20
23579;DHT22;11967;50.852;4.400;2023-02-28T17:09:22;12.10;61.60
23579;DHT22;11967;50.852;4.400;2023-02-28T17:11:49;12.10;62.90
23579;DHT22;11967;50.852;4.400;2023-02-28T17:14:15;12.00;61.60
23579;DHT22;11967;50.852;4.400;2023-02-28T17:16:42;12.00;60.90
23579;DHT22;11967;50.852;4.400;2023-02-28T17:19:15;12.10;60.90
23579;DHT22;11967;50.852;4.400;2023-02-28T17:21:42;12.00;62.60
23579;DHT22;11967;50.852;4.400;2023-02-28T17:24:08;11.90;61.90
23579;DHT22;11967;50.852;4.400;2023-02-28T17:26:34;11.80;61.90
23579;DHT22;11967;50.852;4.400;2023-02-28T17:29:00;11.70;61.50
23579;DHT22;11967;50.852;4.400;2023-02-28T17:31:26;11.70;61.80
23579;DHT22;11967;50.852;4.400;2023-02-28T17:33:53;11.60;62.10
23579;DHT22;11967;50.852;4.400;2023-02-28T17:36:25;11.50;62.30
23579;DHT22;11967;50.852;4.400;2023-02-28T17:38:52;11.60;62.70
23579;DHT22;11967;50.852;4.400;2023-02-28T17:41:18;11.60;62.90
23579;DHT22;11967;50.852;4.400;2023-02-28T17:43:44;11.70;63.40
23579;DHT22;11967;50.852;4.400;2023-02-28T17:46:18;11.70;63.10
23579;DHT22;11967;50.852;4.400;2023-02-28T17:48:46;11.70;63.10
23579;DHT22;11967;50.852;4.400;2023-02-28T17:51:13;11.70;63.40
23579;DHT22;11967;50.852;4.400;2023-02-28T17:53:39;11.60;62.90
23579;DHT22;11967;50.852;4.400;2023-02-28T17:56:30;11.60;62.90
23579;DHT22;11967;50.852;4.400;2023-02-28T17:58:56;11.60;62.90
23579;DHT22;11967;50.852;4.400;2023-02-28T18:01:23;11.50;63.00
23579;DHT22;11967;50.852;4.400;2023-02-28T18:03:51;11.50;63.80
23579;DHT22;11967;50.852;4.400;2023-02-28T18:06:27;11.50;63.60
23579;DHT22;11967;50.852;4.400;2023-02-28T18:08:54;11.50;63.60
23579;DHT22;11967;50.852;4.400;2023-02-28T18:11:21;11.40;63.60
23579;DHT22;11967;50.852;4.400;2023-02-28T18:13:50;11.40;63.90
23579;DHT22;11967;50.852;4.400;2023-02-28T18:16:17;11.50;67.20
23579;DHT22;11967;50.852;4.400;2023-02-28T18:18:43;11.50;66.50
23579;DHT22;11967;50.852;4.400;2023-02-28T18:21:11;11.30;65.40
23579;DHT22;11967;50.852;4.400;2023-02-28T18:23:37;11.30;65.30
23579;DHT22;11967;50.852;4.400;2023-02-28T18:26:09;11.20;65.20
23579;DHT22;11967;50.852;4.400;2023-02-28T18:28:35;11.10;66.10
23579;DHT22;11967;50.852;4.400;2023-02-28T18:31:06;11.10;65.80
23579;DHT22;11967;50.852;4.400;2023-02-28T18:33:31;11.10;66.30
23579;DHT22;11967;50.852;4.400;2023-02-28T18:35:57;11.10;66.50
23579;DHT22;11967;50.852;4.400;2023-02-28T18:38:23;10.90;65.90